createdAt,value
2022-09-28T00:04:19.487Z,87.09
2022-09-28T00:10:18.480Z,87.71
2022-09-28T00:19:47.191Z,87.70
2022-09-28T00:22:14.062Z,87.62
2022-09-28T00:24:41.619Z,87.41
2022-09-28T00:27:09.442Z,87.48
2022-09-28T00:29:37.637Z,87.24
2022-09-28T00:32:09.461Z,87.11
2022-09-28T00:34:39.078Z,86.77
2022-09-28T00:37:08.922Z,86.95
2022-09-28T00:39:37.284Z,87.04
2022-09-28T00:42:11.604Z,86.82
2022-09-28T00:44:41.962Z,86.54
2022-09-28T00:47:43.469Z,86.77
2022-09-28T00:50:20.741Z,86.75
2022-09-28T00:52:53.590Z,87.03
2022-09-28T00:55:27.114Z,87.18
2022-09-28T00:57:58.166Z,86.63
2022-09-28T01:00:27.806Z,86.57
2022-09-28T01:02:58.546Z,86.65
2022-09-28T01:05:28.009Z,86.81
2022-09-28T01:07:57.589Z,86.44
2022-09-28T01:10:25.268Z,86.57
2022-09-28T01:12:52.155Z,86.54
2022-09-28T01:15:21.823Z,86.45
2022-09-28T01:18:03.308Z,86.23
2022-09-28T01:20:56.933Z,86.00
2022-09-28T01:48:53.790Z,86.57
2022-09-28T03:01:25.209Z,84.88
2022-09-28T03:03:59.785Z,84.48
2022-09-28T03:06:33.734Z,84.30
2022-09-28T03:09:05.792Z,84.63
2022-09-28T03:11:40.618Z,84.68
2022-09-28T03:14:07.890Z,84.23
2022-09-28T03:16:47.153Z,84.28
2022-09-28T03:19:16.154Z,84.23
2022-09-28T03:21:43.078Z,84.10
2022-09-28T03:24:11.211Z,84.02
2022-09-28T03:26:38.190Z,84.68
2022-09-28T03:29:06.102Z,84.65
2022-09-28T03:31:33.197Z,84.02
2022-09-28T03:34:01.680Z,84.29
2022-09-28T03:36:28.584Z,84.07
2022-09-28T03:38:56.300Z,84.30
2022-09-28T03:41:24.509Z,83.89
2022-09-28T03:43:51.648Z,83.85
2022-09-28T03:46:18.735Z,83.42
2022-09-28T03:48:49.783Z,83.83
2022-09-28T03:51:18.110Z,83.80
2022-09-28T03:53:45.011Z,83.67
2022-09-28T03:56:14.812Z,83.49
2022-09-28T03:58:42.269Z,83.94
2022-09-28T04:01:16.591Z,83.61
2022-09-28T04:03:45.866Z,84.04
2022-09-28T04:06:13.421Z,83.89
2022-09-28T04:08:43.072Z,83.74
2022-09-28T04:11:10.203Z,83.32
2022-09-28T04:13:37.348Z,83.59
2022-09-28T04:16:06.630Z,83.46
2022-09-28T04:18:35.287Z,83.03
2022-09-28T04:21:21.435Z,83.21
2022-09-28T04:23:55.303Z,83.31
2022-09-28T04:26:24.417Z,83.60
2022-09-28T04:29:10.038Z,83.64
2022-09-28T04:31:42.815Z,83.54
2022-09-28T04:34:10.643Z,83.64
2022-09-28T04:36:37.621Z,83.65
2022-09-28T04:39:05.958Z,83.58
2022-09-28T04:41:33.865Z,82.94
2022-09-28T04:44:01.562Z,82.78
2022-09-28T04:46:28.439Z,83.32
2022-09-28T04:49:14.044Z,82.97
2022-09-28T04:51:48.635Z,83.13
2022-09-28T04:54:17.003Z,82.87
2022-09-28T04:56:43.941Z,83.02
2022-09-28T04:59:11.698Z,83.00
2022-09-28T05:01:40.015Z,82.72
2022-09-28T05:04:26.253Z,82.72
2022-09-28T05:07:07.860Z,82.75
2022-09-28T05:09:38.578Z,82.87
2022-09-28T05:12:05.959Z,82.70
2022-09-28T05:14:32.771Z,82.93
2022-09-28T05:16:59.811Z,82.77
2022-09-28T05:19:44.996Z,83.27
2022-09-28T05:22:14.896Z,83.28
2022-09-28T05:24:47.225Z,82.82
2022-09-28T05:27:14.673Z,82.67
2022-09-28T05:29:43.194Z,82.49
2022-09-28T05:32:25.336Z,82.76
2022-09-28T05:35:06.349Z,82.63
2022-09-28T05:37:45.545Z,82.54
2022-09-28T05:40:13.976Z,82.52
2022-09-28T05:42:41.375Z,82.18
2022-09-28T05:45:09.752Z,82.09
2022-09-28T05:47:38.943Z,82.42
2022-09-28T05:50:08.154Z,82.70
2022-09-28T05:52:35.147Z,82.63
2022-09-28T05:55:03.702Z,82.43
2022-09-28T05:57:32.011Z,82.22
2022-09-28T05:59:59.029Z,82.19
2022-09-28T06:02:28.944Z,82.27
2022-09-28T06:04:55.994Z,82.87
2022-09-28T06:07:23.448Z,82.71
2022-09-28T06:09:50.348Z,82.48
2022-09-28T06:12:38.217Z,82.25
2022-09-28T06:15:11.459Z,82.44
2022-09-28T06:17:38.408Z,82.95
2022-09-28T06:20:43.679Z,82.73
2022-09-28T06:23:17.741Z,82.56
2022-09-28T06:25:44.814Z,82.35
2022-09-28T06:28:14.710Z,82.07
2022-09-28T06:30:42.532Z,81.66
2022-09-28T06:33:14.304Z,82.00
2022-09-28T06:35:41.248Z,81.20
2022-09-28T06:38:08.359Z,81.45
2022-09-28T06:40:35.850Z,81.81
2022-09-28T06:43:10.214Z,81.47
2022-09-28T06:45:57.127Z,81.57
2022-09-28T06:48:45.150Z,81.67
2022-09-28T06:51:19.958Z,81.46
2022-09-28T06:53:57.682Z,81.24
2022-09-28T06:56:39.922Z,80.62
2022-09-28T06:59:06.880Z,80.74
2022-09-28T07:01:36.494Z,80.94
2022-09-28T07:04:11.600Z,80.86
2022-09-28T07:06:54.281Z,80.79
2022-09-28T07:09:44.999Z,80.49
2022-09-28T07:12:41.152Z,81.16
2022-09-28T07:15:27.655Z,80.43
2022-09-28T07:18:02.705Z,80.87
2022-09-28T07:20:32.010Z,79.70
2022-09-28T07:23:12.921Z,80.56
2022-09-28T07:26:07.778Z,80.60
2022-09-28T07:28:55.922Z,79.74
2022-09-28T07:31:33.773Z,80.21
2022-09-28T07:34:39.989Z,78.99
2022-09-28T07:37:26.835Z,77.60
2022-09-28T07:40:12.936Z,77.12
2022-09-28T07:42:39.908Z,77.37
2022-09-28T07:45:08.598Z,76.13
2022-09-28T07:47:35.983Z,74.50
2022-09-28T07:50:13.980Z,73.92
2022-09-28T07:52:57.418Z,75.75
2022-09-28T07:55:51.487Z,75.83
2022-09-28T07:58:35.671Z,75.18
2022-09-28T08:01:31.699Z,75.96
2022-09-28T08:04:00.003Z,74.96
2022-09-28T08:06:30.559Z,75.82
2022-09-28T08:09:00.115Z,75.78
2022-09-28T08:11:46.917Z,74.82
2022-09-28T08:14:35.317Z,74.71
2022-09-28T08:17:15.768Z,72.95
2022-09-28T08:20:04.302Z,73.98
2022-09-28T08:22:33.141Z,72.71
2022-09-28T08:25:01.089Z,73.32
2022-09-28T08:27:29.141Z,73.29
2022-09-28T08:29:56.099Z,70.96
2022-09-28T08:32:37.626Z,73.09
2022-09-28T08:35:26.202Z,72.84
2022-09-28T08:38:11.001Z,73.96
2022-09-28T08:41:05.390Z,72.40
2022-09-28T08:44:02.581Z,73.18
2022-09-28T08:46:51.341Z,73.53
2022-09-28T08:49:47.610Z,73.70
2022-09-28T08:52:39.727Z,73.45
2022-09-28T08:55:31.560Z,74.35
2022-09-28T08:58:04.443Z,74.04
2022-09-28T09:00:39.751Z,74.03
2022-09-28T09:03:12.244Z,73.66
2022-09-28T09:05:51.068Z,72.42
2022-09-28T09:08:50.098Z,72.75
2022-09-28T09:11:32.658Z,70.17
2022-09-28T09:14:15.777Z,72.57
2022-09-28T09:17:00.383Z,73.11
2022-09-28T09:19:53.858Z,73.20
2022-09-28T09:22:39.119Z,71.54
2022-09-28T09:25:18.939Z,74.07
2022-09-28T09:28:15.558Z,71.81
2022-09-28T09:30:52.812Z,71.79
2022-09-28T09:33:47.055Z,69.25
2022-09-28T09:36:47.352Z,69.48
2022-09-28T09:39:42.339Z,70.95
2022-09-28T09:42:55.463Z,70.41
2022-09-28T09:46:03.366Z,71.17
2022-09-28T09:48:45.470Z,72.73
2022-09-28T09:51:20.888Z,70.89
2022-09-28T09:53:52.820Z,70.31
2022-09-28T09:56:26.313Z,71.49
2022-09-28T09:59:20.957Z,71.05
2022-09-28T10:02:12.040Z,71.37
2022-09-28T10:04:53.567Z,70.91
2022-09-28T10:07:33.578Z,70.40
2022-09-28T10:10:02.517Z,69.49
2022-09-28T10:12:44.514Z,67.70
2022-09-28T10:15:16.241Z,66.13
2022-09-28T10:18:16.292Z,68.09
2022-09-28T10:21:02.301Z,67.80
2022-09-28T10:23:39.305Z,63.01
2022-09-28T10:26:15.740Z,64.34
2022-09-28T10:28:48.710Z,66.20
2022-09-28T10:31:37.090Z,63.99
2022-09-28T10:34:10.562Z,63.75
2022-09-28T10:36:50.135Z,64.00
2022-09-28T10:39:29.662Z,62.66
2022-09-28T10:41:59.844Z,62.41
2022-09-28T10:44:32.079Z,61.48
2022-09-28T10:47:17.560Z,61.31
2022-09-28T10:49:49.370Z,59.96
2022-09-28T10:52:31.559Z,61.22
2022-09-28T10:54:58.979Z,58.72
2022-09-28T10:57:29.093Z,60.03
2022-09-28T11:00:06.918Z,57.53
2022-09-28T11:02:56.855Z,61.37
2022-09-28T11:05:30.190Z,60.25
2022-09-28T11:08:00.775Z,60.63
2022-09-28T11:10:34.700Z,58.39
2022-09-28T11:13:12.471Z,59.49
2022-09-28T11:15:44.224Z,60.55
2022-09-28T11:18:25.235Z,61.31
2022-09-28T11:21:11.191Z,62.28
2022-09-28T11:23:41.082Z,58.54
2022-09-28T11:26:19.314Z,58.54
2022-09-28T11:28:51.262Z,58.02
2022-09-28T11:31:28.110Z,57.23
2022-09-28T11:34:06.672Z,58.03
2022-09-28T11:37:01.703Z,56.79
2022-09-28T11:39:40.927Z,59.80
2022-09-28T11:42:17.547Z,58.73
2022-09-28T11:44:48.008Z,59.59
2022-09-28T11:47:50.786Z,60.31
2022-09-28T11:50:28.458Z,55.43
2022-09-28T11:53:09.898Z,57.20
2022-09-28T11:55:42.384Z,58.53
2022-09-28T11:58:14.296Z,57.79
2022-09-28T12:00:46.508Z,56.27
2022-09-28T12:03:18.436Z,54.09
2022-09-28T12:05:52.223Z,54.98
2022-09-28T12:08:25.610Z,56.77
2022-09-28T12:11:20.569Z,57.15
2022-09-28T12:14:12.539Z,57.71
2022-09-28T12:17:05.086Z,58.28
2022-09-28T12:19:38.810Z,57.56
2022-09-28T12:22:16.022Z,59.18
2022-09-28T12:24:47.580Z,58.09
2022-09-28T12:27:17.549Z,59.95
2022-09-28T12:29:48.623Z,61.31
2022-09-28T12:32:26.604Z,60.55
2022-09-28T12:34:53.552Z,59.30
2022-09-28T12:37:54.461Z,61.46
2022-09-28T12:40:37.160Z,56.55
2022-09-28T12:43:21.547Z,57.57
2022-09-28T12:46:11.878Z,58.52
2022-09-28T12:49:21.712Z,57.17
2022-09-28T12:51:48.810Z,56.29
2022-09-28T12:54:34.458Z,55.68
2022-09-28T12:57:18.047Z,56.78
2022-09-28T12:59:56.447Z,57.48
2022-09-28T13:02:39.952Z,56.10
2022-09-28T13:05:40.941Z,55.03
2022-09-28T13:08:13.928Z,53.23
2022-09-28T13:10:46.199Z,52.80
2022-09-28T13:13:26.859Z,51.62
2022-09-28T13:16:02.590Z,52.12
2022-09-28T13:18:35.350Z,52.91
2022-09-28T13:21:25.253Z,55.22
2022-09-28T13:24:00.859Z,53.39
2022-09-28T13:26:38.240Z,51.81
2022-09-28T13:29:11.636Z,52.46
2022-09-28T13:31:51.525Z,52.23
2022-09-28T13:34:22.653Z,51.58
2022-09-28T13:37:09.075Z,54.29
2022-09-28T13:39:46.320Z,52.08
2022-09-28T13:42:46.055Z,53.17
2022-09-28T13:45:48.666Z,50.14
2022-09-28T13:48:48.521Z,52.19
2022-09-28T13:51:31.879Z,54.17
2022-09-28T13:54:02.079Z,51.63
2022-09-28T13:59:58.674Z,52.36
2022-09-28T14:03:05.595Z,50.45
2022-09-28T14:11:54.481Z,53.69
2022-09-28T14:17:54.119Z,52.13
2022-09-28T14:20:26.559Z,53.79
2022-09-28T14:23:12.397Z,53.66
2022-09-28T14:25:43.323Z,53.24
2022-09-28T14:28:30.979Z,54.94
2022-09-28T14:31:00.621Z,53.60
2022-09-28T14:33:33.771Z,54.76
2022-09-28T14:36:05.812Z,51.78
2022-09-28T14:38:54.644Z,54.22
2022-09-28T14:41:29.796Z,52.90
2022-09-28T14:44:08.374Z,52.62
2022-09-28T14:46:44.296Z,52.10
2022-09-28T14:49:40.059Z,52.17
2022-09-28T14:52:13.472Z,50.81
2022-09-28T14:54:53.953Z,52.31
2022-09-28T14:57:25.212Z,51.50
2022-09-28T14:59:52.456Z,52.22
2022-09-28T15:02:24.748Z,49.92
2022-09-28T15:04:55.210Z,49.72
2022-09-28T15:07:26.767Z,51.09
2022-09-28T15:09:56.525Z,51.06
2022-09-28T15:12:26.248Z,51.68
2022-09-28T15:14:56.357Z,53.87
2022-09-28T15:17:26.731Z,53.96
2022-09-28T15:20:24.089Z,53.50
2022-09-28T15:22:58.845Z,53.72
2022-09-28T15:25:27.253Z,54.76
2022-09-28T15:27:56.341Z,55.61
2022-09-28T15:30:28.542Z,54.56
2022-09-28T15:36:16.132Z,54.24
2022-09-28T15:38:56.795Z,54.92
2022-09-28T15:41:24.991Z,55.34
2022-09-28T15:47:15.887Z,54.98
2022-09-28T15:52:52.860Z,56.19
2022-09-28T15:55:24.724Z,55.15
2022-09-28T15:58:07.573Z,54.47
2022-09-28T16:00:35.525Z,55.58
2022-09-28T16:03:19.048Z,55.84
2022-09-28T16:05:49.087Z,56.44
2022-09-28T16:08:22.121Z,55.81
2022-09-28T16:10:57.556Z,56.11
2022-09-28T16:13:25.055Z,57.47
2022-09-28T16:15:58.142Z,56.56
2022-09-28T16:18:26.703Z,56.38
2022-09-28T16:20:56.170Z,56.60
2022-09-28T16:23:26.978Z,56.04
2022-09-28T16:25:58.956Z,56.18
2022-09-28T16:28:52.139Z,57.83
2022-09-28T16:31:33.669Z,57.79
2022-09-28T16:34:11.409Z,57.84
2022-09-28T16:36:45.302Z,58.47
2022-09-28T16:39:12.849Z,59.77
2022-09-28T16:41:44.193Z,59.11
2022-09-28T16:44:17.799Z,59.73
2022-09-28T16:46:45.672Z,61.49
2022-09-28T16:49:18.880Z,60.86
2022-09-28T16:51:47.214Z,61.61
2022-09-28T16:54:35.144Z,62.63
2022-09-28T16:57:05.676Z,64.61
2022-09-28T16:59:32.973Z,64.12
2022-09-28T17:02:00.343Z,65.33
2022-09-28T17:04:27.473Z,65.58
2022-09-28T17:06:56.028Z,66.38
2022-09-28T17:09:23.382Z,66.72
2022-09-28T17:11:56.893Z,66.85
2022-09-28T17:14:25.461Z,68.22
2022-09-28T17:17:12.652Z,67.94
2022-09-28T17:19:41.180Z,69.33
2022-09-28T17:22:08.448Z,69.47
2022-09-28T17:24:35.271Z,69.35
2022-09-28T17:27:03.366Z,70.31
2022-09-28T17:29:32.653Z,69.52
2022-09-28T17:31:59.584Z,69.72
2022-09-28T17:34:26.503Z,71.30
2022-09-28T17:36:53.568Z,70.73
2022-09-28T17:39:20.597Z,71.28
2022-09-28T17:41:47.658Z,71.62
2022-09-28T17:44:16.109Z,71.56
2022-09-28T17:46:48.447Z,72.24
2022-09-28T17:49:15.910Z,72.34
2022-09-28T17:51:42.794Z,72.00
2022-09-28T17:54:09.778Z,72.16
2022-09-28T17:56:36.920Z,72.52
2022-09-28T17:59:05.512Z,72.84
2022-09-28T18:01:35.911Z,73.53
2022-09-28T18:04:06.633Z,73.31
2022-09-28T18:06:34.371Z,73.38
2022-09-28T18:09:02.864Z,73.79
2022-09-28T18:11:29.993Z,73.62
2022-09-28T18:13:56.847Z,73.69
2022-09-28T18:16:23.948Z,73.90
2022-09-28T18:18:50.858Z,74.47
2022-09-28T18:21:19.851Z,73.87
2022-09-28T18:23:46.698Z,74.09
2022-09-28T18:26:15.172Z,74.00
2022-09-28T18:28:42.216Z,73.88
2022-09-28T18:31:10.712Z,74.25
2022-09-28T18:33:38.504Z,74.02
2022-09-28T18:36:06.779Z,74.61
2022-09-28T18:38:37.020Z,74.48
2022-09-28T18:41:08.488Z,74.78
2022-09-28T18:43:36.473Z,74.79
2022-09-28T18:46:08.104Z,75.13
2022-09-28T18:48:35.991Z,74.93
2022-09-28T18:51:03.148Z,74.99
2022-09-28T18:53:33.319Z,74.75
2022-09-28T18:56:06.031Z,75.13
2022-09-28T18:58:34.855Z,75.84
2022-09-28T19:01:28.311Z,74.97
2022-09-28T19:03:53.928Z,74.17
2022-09-28T19:06:20.845Z,74.20
2022-09-28T19:08:52.358Z,73.96
2022-09-28T19:11:20.596Z,73.87
2022-09-28T19:13:47.564Z,74.49
2022-09-28T19:16:20.823Z,74.18
2022-09-28T19:18:48.751Z,74.63
2022-09-28T19:21:15.933Z,74.47
2022-09-28T19:23:49.836Z,74.47
2022-09-28T19:26:18.898Z,74.16
2022-09-28T19:28:47.739Z,74.02
2022-09-28T19:31:14.820Z,74.61
2022-09-28T19:33:41.935Z,75.17
2022-09-28T19:36:11.866Z,74.30
2022-09-28T19:38:40.157Z,73.91
2022-09-28T19:41:10.974Z,73.92
2022-09-28T19:43:38.344Z,73.78
2022-09-28T19:46:07.141Z,73.55
2022-09-28T19:48:35.390Z,73.41
2022-09-28T19:51:05.092Z,73.36
2022-09-28T19:53:36.637Z,73.72
2022-09-28T19:56:05.608Z,74.54
2022-09-28T19:58:35.373Z,74.82
2022-09-28T20:01:07.085Z,74.87
2022-09-28T20:03:33.998Z,75.03
2022-09-28T20:06:01.864Z,75.06
2022-09-28T20:08:30.134Z,75.69
2022-09-28T20:10:59.597Z,75.75
2022-09-28T20:13:31.901Z,76.36
2022-09-28T20:16:03.390Z,76.53
2022-09-28T20:18:35.056Z,76.05
2022-09-28T20:21:03.267Z,75.44
2022-09-28T20:23:31.042Z,75.90
2022-09-28T20:25:58.197Z,76.33
2022-09-28T20:28:25.314Z,75.95
2022-09-28T20:30:52.505Z,76.24
2022-09-28T20:33:28.574Z,76.03
2022-09-28T20:35:57.865Z,76.40
2022-09-28T20:38:24.767Z,77.01
2022-09-28T20:40:51.636Z,77.58
2022-09-28T20:43:19.081Z,77.28
2022-09-28T20:45:46.005Z,77.86
2022-09-28T20:48:12.829Z,77.76
2022-09-28T20:50:41.307Z,77.95
2022-09-28T20:53:09.546Z,77.72
2022-09-28T20:55:36.383Z,77.69
2022-09-28T20:58:04.244Z,78.24
2022-09-28T21:00:31.294Z,77.99
2022-09-28T21:02:58.129Z,77.79
2022-09-28T21:05:25.035Z,77.49
2022-09-28T21:07:51.856Z,77.48
2022-09-28T21:10:20.106Z,77.28
2022-09-28T21:12:50.250Z,76.95
2022-09-28T21:15:17.110Z,77.78
2022-09-28T21:17:44.025Z,77.64
2022-09-28T21:20:10.968Z,77.90
2022-09-28T21:22:37.817Z,77.74
2022-09-28T21:25:05.356Z,78.16
2022-09-28T21:27:34.024Z,78.11
2022-09-28T21:30:03.045Z,77.82
2022-09-28T21:32:29.895Z,78.42
2022-09-28T21:34:56.770Z,78.47
2022-09-28T21:37:23.781Z,78.32
2022-09-28T21:39:50.587Z,78.44
2022-09-28T21:42:17.416Z,78.73
2022-09-28T21:44:45.642Z,78.19
2022-09-28T21:47:12.509Z,78.04
2022-09-28T21:49:39.353Z,78.54
2022-09-28T21:52:06.222Z,78.27
2022-09-28T21:54:37.190Z,78.67
2022-09-28T21:57:04.220Z,78.62
2022-09-28T21:59:31.326Z,78.37
2022-09-28T22:01:59.530Z,78.30
2022-09-28T22:04:26.685Z,78.37
2022-09-28T22:06:53.527Z,78.35
2022-09-28T22:09:20.349Z,79.02
2022-09-28T22:11:49.039Z,79.37
2022-09-28T22:14:15.897Z,79.33
2022-09-28T22:16:43.107Z,79.44
2022-09-28T22:19:11.342Z,78.98
2022-09-28T22:21:39.028Z,78.55
2022-09-28T22:24:07.147Z,78.44
2022-09-28T22:26:35.937Z,78.86
2022-09-28T22:29:05.595Z,81.24
2022-09-28T22:31:34.584Z,81.34
2022-09-28T22:34:01.955Z,81.22
2022-09-28T22:36:30.690Z,82.39
2022-09-28T22:38:58.661Z,82.40
2022-09-28T22:41:26.262Z,81.52
2022-09-28T22:43:54.845Z,80.13
2022-09-28T22:46:23.811Z,79.64
2022-09-28T22:48:52.749Z,79.59
2022-09-28T22:51:20.422Z,79.51
2022-09-28T22:53:49.014Z,79.19
2022-09-28T22:56:18.778Z,79.54
2022-09-28T22:58:47.211Z,79.30
2022-09-28T23:01:17.335Z,80.15
2022-09-28T23:03:44.924Z,80.02
2022-09-28T23:06:14.073Z,80.08
2022-09-28T23:08:41.042Z,80.34
2022-09-28T23:11:09.374Z,80.50
2022-09-28T23:13:37.616Z,80.08
2022-09-28T23:16:06.107Z,80.26
2022-09-28T23:18:36.349Z,80.31
2022-09-28T23:21:05.722Z,79.99
2022-09-28T23:23:33.368Z,80.09
2022-09-28T23:26:01.260Z,82.20
2022-09-28T23:28:30.007Z,81.98
2022-09-28T23:30:56.867Z,81.49
2022-09-28T23:33:23.753Z,81.26
2022-09-28T23:35:51.167Z,80.92
2022-09-28T23:38:18.487Z,81.52
2022-09-28T23:40:46.339Z,80.82
2022-09-28T23:43:14.276Z,80.76
2022-09-28T23:45:44.046Z,82.64
2022-09-28T23:48:10.972Z,83.59
2022-09-28T23:50:37.772Z,82.66
2022-09-28T23:53:05.624Z,81.93
2022-09-28T23:55:32.546Z,81.15
2022-09-28T23:57:59.423Z,80.66
